Time;durP1;ratioP1;P1;durP2;ratioP2;P2;SDS_P1;SDS_P2;PMS_P1;PMS_P2;Temp;Humidity;BMP_temperature;BMP_pressure;BME280_temperature;BME280_humidity;BME280_pressure;Samples;Min_cycle;Max_cycle;Signal;HPM_P1;HPM_P2
2021/08/24 00:00:55;;;;;;;;;;;14.20;72.60;;;;;;4959718;28;96624;-58
2021/08/24 00:03:25;;;;;;;4.05;1.60;;;14.30;72.40;;;;;;4959134;28;96003;-58
2021/08/24 00:05:55;;;;;;;4.88;2.63;;;14.30;72.10;;;;;;4955834;28;95820;-59
2021/08/24 00:08:27;;;;;;;6.47;3.55;;;14.40;72.00;;;;;;4965119;28;95332;-55
2021/08/24 00:10:57;;;;;;;;;;;14.50;71.90;;;;;;4952201;28;96147;-58
2021/08/24 00:13:28;;;;;;;4.65;3.65;;;14.60;72.20;;;;;;4981855;28;96155;-57
2021/08/24 00:15:59;;;;;;;6.60;4.35;;;14.60;72.20;;;;;;4954157;28;99680;-58
2021/08/24 00:18:31;;;;;;;6.53;4.63;;;14.70;72.20;;;;;;4961949;28;95620;-55
2021/08/24 00:21:04;;;;;;;4.65;3.70;;;14.80;72.10;;;;;;4950508;28;95790;-58
2021/08/24 00:23:35;;;;;;;5.07;3.80;;;14.80;72.00;;;;;;4965455;28;95772;-57
2021/08/24 00:26:05;;;;;;;4.22;3.58;;;14.90;71.90;;;;;;4962887;28;96813;-57
2021/08/24 00:28:37;;;;;;;4.10;3.63;;;14.90;71.70;;;;;;4959018;28;96127;-58
2021/08/24 00:31:08;;;;;;;3.70;3.38;;;15.00;71.60;;;;;;4944414;28;96806;-57
2021/08/24 00:33:39;;;;;;;3.83;2.65;;;15.00;71.50;;;;;;4965700;28;95808;-56
2021/08/24 00:36:15;;;;;;;3.13;2.67;;;15.00;71.40;;;;;;4959508;28;95223;-59
2021/08/24 00:38:45;;;;;;;5.15;3.92;;;15.10;71.30;;;;;;4960559;28;95697;-56
2021/08/24 00:41:17;;;;;;;5.65;4.90;;;15.10;71.40;;;;;;4959011;28;96514;-54
2021/08/24 00:43:49;;;;;;;6.18;5.07;;;15.20;71.20;;;;;;4955201;28;95785;-61
2021/08/24 00:46:42;;;;;;;6.07;5.25;;;15.20;71.10;;;;;;4944448;28;95314;-56
2021/08/24 00:49:18;;;;;;;7.03;4.75;;;15.20;71.00;;;;;;4960922;28;95818;-59
2021/08/24 00:52:01;;;;;;;11.98;5.05;;;15.30;70.90;;;;;;4964548;28;95877;-55
2021/08/24 00:54:32;;;;;;;5.20;4.10;;;15.20;70.70;;;;;;4956649;28;95770;-56
2021/08/24 00:57:07;;;;;;;;;;;15.30;70.60;;;;;;4958029;28;96300;-56
2021/08/24 00:59:37;;;;;;;4.00;3.10;;;15.30;70.50;;;;;;4957385;28;95604;-58
2021/08/24 01:02:08;;;;;;;4.85;3.60;;;15.40;70.50;;;;;;4953129;28;95996;-57
2021/08/24 01:04:41;;;;;;;5.70;3.13;;;15.40;70.40;;;;;;4958512;28;96005;-57
2021/08/24 01:07:37;;;;;;;6.25;2.38;;;15.50;70.40;;;;;;4965865;28;96012;-60
2021/08/24 01:10:51;;;;;;;9.32;3.30;;;15.50;70.40;;;;;;4967947;28;96305;-59
2021/08/24 01:13:32;;;;;;;5.72;3.10;;;15.50;70.40;;;;;;4960585;28;95896;-59
2021/08/24 01:16:38;;;;;;;4.20;2.53;;;15.60;70.40;;;;;;4948056;28;95537;-59
2021/08/24 01:19:28;;;;;;;4.32;2.85;;;15.60;70.40;;;;;;4961514;28;96163;-58
2021/08/24 01:22:16;;;;;;;3.92;2.53;;;15.70;70.50;;;;;;4971324;28;95840;-58
2021/08/24 01:25:03;;;;;;;4.97;2.03;;;15.70;70.30;;;;;;4962498;28;95940;-55
2021/08/24 01:27:58;;;;;;;1.92;1.73;;;15.80;70.20;;;;;;4952456;28;95520;-54
2021/08/24 01:30:51;;;;;;;3.90;2.13;;;15.90;70.20;;;;;;4950921;28;95669;-55
2021/08/24 01:33:48;;;;;;;2.45;1.70;;;15.90;70.00;;;;;;4960330;28;95727;-55
2021/08/24 01:36:32;;;;;;;5.55;1.90;;;16.00;70.00;;;;;;4964860;28;97056;-57
2021/08/24 01:39:14;;;;;;;3.83;1.83;;;16.00;69.90;;;;;;4966256;28;95780;-58
2021/08/24 01:42:06;;;;;;;2.30;1.58;;;16.00;69.80;;;;;;4953252;28;95677;-57
2021/08/24 01:44:52;;;;;;;2.28;1.48;;;16.10;69.70;;;;;;4958110;28;96837;-58
2021/08/24 01:47:45;;;;;;;2.13;1.58;;;16.10;69.60;;;;;;4979303;28;97274;-58
2021/08/24 01:50:34;;;;;;;2.97;1.67;;;16.10;69.80;;;;;;4953936;28;95795;-58
2021/08/24 01:53:18;;;;;;;2.17;1.02;;;16.20;69.20;;;;;;4966596;28;95758;-56
2021/08/24 01:56:11;;;;;;;3.38;1.40;;;16.20;69.10;;;;;;4995208;28;96101;-55
2021/08/24 01:58:49;;;;;;;2.97;1.35;;;16.30;68.70;;;;;;4965493;28;95892;-56
2021/08/24 02:01:25;;;;;;;1.20;0.88;;;16.30;68.30;;;;;;4963183;28;96114;-57
2021/08/24 02:03:58;;;;;;;3.67;1.40;;;16.30;68.10;;;;;;4966591;28;95832;-56
2021/08/24 02:06:50;;;;;;;1.73;1.08;;;16.30;68.10;;;;;;4964429;28;97994;-59
2021/08/24 02:09:27;;;;;;;2.63;1.25;;;16.30;67.80;;;;;;4954071;28;95927;-56
2021/08/24 02:11:59;;;;;;;3.65;1.55;;;16.30;67.90;;;;;;4957318;28;95737;-57
2021/08/24 02:14:31;;;;;;;2.33;1.27;;;16.30;68.10;;;;;;4972440;28;95791;-56
2021/08/24 02:17:04;;;;;;;1.67;1.13;;;16.30;68.20;;;;;;4986898;28;95846;-57
2021/08/24 02:19:53;;;;;;;1.92;0.90;;;16.40;68.20;;;;;;4954008;28;95895;-56
2021/08/24 02:22:31;;;;;;;1.65;1.00;;;16.40;68.30;;;;;;4963475;28;95927;-57
2021/08/24 02:29:34;;;;;;;1.50;1.20;;;16.40;68.00;;;;;;4939609;28;99171;-58
2021/08/24 02:32:14;;;;;;;2.22;1.30;;;16.40;69.20;;;;;;4950989;28;96325;-57
2021/08/24 02:35:09;;;;;;;2.40;1.50;;;16.50;69.40;;;;;;4952489;28;98182;-57
2021/08/24 02:37:59;;;;;;;1.92;1.17;;;16.50;69.70;;;;;;4962172;28;95666;-57
2021/08/24 02:40:33;;;;;;;2.92;0.98;;;16.60;69.20;;;;;;4963462;28;96196;-59
2021/08/24 02:43:26;;;;;;;2.28;1.08;;;16.60;69.10;;;;;;4988308;28;98461;-56
2021/08/24 02:46:07;;;;;;;;;;;16.60;68.90;;;;;;4956151;28;95643;-58
2021/08/24 02:48:42;;;;;;;2.45;1.10;;;16.60;68.90;;;;;;4963071;28;96006;-59
2021/08/24 02:51:15;;;;;;;2.60;0.80;;;16.60;68.90;;;;;;4964074;28;96332;-58
2021/08/24 02:54:07;;;;;;;4.93;1.55;;;16.60;68.30;;;;;;4961244;28;96030;-58
2021/08/24 02:56:38;;;;;;;1.85;0.93;;;16.60;67.90;;;;;;4962400;28;95771;-55
2021/08/24 02:59:08;;;;;;;1.58;0.90;;;16.60;67.70;;;;;;4960023;28;97592;-57
2021/08/24 03:01:38;;;;;;;1.35;0.93;;;16.60;67.90;;;;;;4956414;28;97221;-58
2021/08/24 03:04:11;;;;;;;0.63;0.60;;;16.80;67.90;;;;;;4961930;28;96384;-57
2021/08/24 03:06:50;;;;;;;2.00;1.02;;;16.80;67.80;;;;;;4964462;28;95836;-59
2021/08/24 03:09:26;;;;;;;1.30;0.73;;;16.80;67.60;;;;;;4964810;28;95662;-52
2021/08/24 03:12:08;;;;;;;1.42;0.75;;;16.90;67.60;;;;;;4962331;28;95870;-57
2021/08/24 03:14:54;;;;;;;2.28;0.70;;;17.00;67.40;;;;;;4958881;28;96767;-57
2021/08/24 03:17:34;;;;;;;1.95;0.88;;;17.00;67.30;;;;;;4950816;28;95693;-58
2021/08/24 03:20:09;;;;;;;1.25;0.70;;;17.10;67.10;;;;;;4960351;28;95402;-59
2021/08/24 03:22:42;;;;;;;0.80;0.80;;;17.10;66.90;;;;;;4957726;28;95857;-58
2021/08/24 03:25:14;;;;;;;1.45;0.80;;;17.20;66.80;;;;;;4962004;28;96474;-59
2021/08/24 03:27:51;;;;;;;1.88;1.20;;;17.20;66.80;;;;;;4963023;28;97643;-54
2021/08/24 03:30:24;;;;;;;5.65;1.20;;;17.30;66.80;;;;;;4958335;28;96740;-56
2021/08/24 03:32:54;;;;;;;2.95;1.40;;;17.30;66.70;;;;;;4957591;28;96871;-56
2021/08/24 03:35:24;;;;;;;3.90;2.05;;;17.40;67.00;;;;;;4960416;28;98544;-60
2021/08/24 03:37:54;;;;;;;4.57;2.88;;;17.50;67.00;;;;;;4963671;28;95535;-56
2021/08/24 03:40:24;;;;;;;4.60;3.13;;;17.50;67.10;;;;;;4962142;28;96648;-57
2021/08/24 03:42:56;;;;;;;5.07;3.45;;;17.60;67.20;;;;;;4961175;28;96037;-57
2021/08/24 03:45:27;;;;;;;4.93;3.10;;;17.70;67.30;;;;;;4957408;28;97961;-58
2021/08/24 03:47:58;;;;;;;8.07;4.20;;;17.80;67.00;;;;;;4958920;28;95836;-59
2021/08/24 03:50:29;;;;;;;;;;;17.90;66.90;;;;;;4956579;28;95706;-58
2021/08/24 03:53:02;;;;;;;5.53;3.38;;;18.00;66.70;;;;;;4962389;28;96300;-58
2021/08/24 03:55:33;;;;;;;4.20;3.20;;;18.10;66.50;;;;;;4959081;28;97230;-57
2021/08/24 03:58:03;;;;;;;5.63;3.00;;;18.10;66.20;;;;;;4962715;28;96342;-57
2021/08/24 04:00:33;;;;;;;6.28;3.03;;;18.20;65.90;;;;;;4987770;28;96701;-58
2021/08/24 04:03:05;;;;;;;6.68;3.03;;;18.30;65.70;;;;;;4962963;28;95291;-56
2021/08/24 04:05:37;;;;;;;3.88;2.88;;;18.30;65.60;;;;;;4956899;28;95921;-55
2021/08/24 04:08:08;;;;;;;3.63;2.50;;;18.40;65.40;;;;;;4958022;28;96498;-58
2021/08/24 04:10:40;;;;;;;5.05;2.50;;;18.50;65.30;;;;;;4960222;28;96060;-57
2021/08/24 04:13:12;;;;;;;5.82;2.17;;;18.50;65.70;;;;;;4961270;28;96140;-57
2021/08/24 04:15:43;;;;;;;2.17;1.98;;;18.60;65.80;;;;;;4955837;28;96147;-53
2021/08/24 04:18:18;;;;;;;2.63;1.80;;;18.70;66.10;;;;;;4960928;28;95999;-54
2021/08/24 04:20:48;;;;;;;5.35;2.22;;;18.80;66.20;;;;;;4957927;28;95626;-58
2021/08/24 04:23:23;;;;;;;3.73;2.13;;;18.90;66.40;;;;;;4954414;28;96058;-59
2021/08/24 04:25:54;;;;;;;3.47;1.92;;;19.00;66.30;;;;;;4955785;28;96480;-58
2021/08/24 04:28:25;;;;;;;2.97;1.65;;;19.10;66.40;;;;;;4950657;28;96895;-56
2021/08/24 04:30:58;;;;;;;3.38;1.75;;;19.20;66.50;;;;;;4952972;28;97022;-56
2021/08/24 04:33:29;;;;;;;5.07;2.00;;;19.30;66.50;;;;;;4960808;28;95714;-52
2021/08/24 04:36:06;;;;;;;3.13;1.50;;;19.30;66.40;;;;;;4960164;28;96771;-56
2021/08/24 04:38:39;;;;;;;2.60;1.92;;;19.50;66.50;;;;;;4959841;28;95810;-59
2021/08/24 04:41:10;;;;;;;2.55;1.58;;;19.60;66.40;;;;;;4959272;28;96416;-56
2021/08/24 04:43:41;;;;;;;1.70;1.38;;;19.60;66.40;;;;;;4963732;28;96945;-57
2021/08/24 04:46:12;;;;;;;1.63;1.40;;;19.70;66.30;;;;;;4956348;28;97946;-53
2021/08/24 04:48:43;;;;;;;3.05;1.70;;;19.80;66.30;;;;;;4962156;28;96241;-56
2021/08/24 04:51:15;;;;;;;3.53;1.67;;;19.80;66.30;;;;;;4962109;28;95957;-54
2021/08/24 04:53:45;;;;;;;2.78;1.55;;;19.90;66.10;;;;;;4962377;28;96214;-56
2021/08/24 04:56:16;;;;;;;1.65;1.35;;;20.00;66.30;;;;;;4960124;28;95985;-54
2021/08/24 04:58:48;;;;;;;1.98;1.33;;;20.00;66.20;;;;;;4962035;28;95598;-56
2021/08/24 05:01:19;;;;;;;2.58;1.52;;;20.10;66.20;;;;;;4957845;28;96490;-55
2021/08/24 05:03:49;;;;;;;;;;;20.10;66.00;;;;;;4963647;28;95975;-52
2021/08/24 05:06:20;;;;;;;3.22;1.58;;;20.20;66.10;;;;;;4962395;28;96370;-52
2021/08/24 05:08:53;;;;;;;7.38;4.80;;;20.20;66.10;;;;;;4964787;28;96112;-55
2021/08/24 05:11:23;;;;;;;12.70;5.53;;;20.20;63.50;;;;;;4963530;28;96363;-54
2021/08/24 05:13:54;;;;;;;13.07;7.65;;;20.20;63.10;;;;;;4958307;28;95826;-55
2021/08/24 05:16:27;;;;;;;13.13;6.67;;;20.20;62.70;;;;;;4959503;28;95951;-58
2021/08/24 05:18:58;;;;;;;11.98;6.65;;;20.20;62.10;;;;;;4964028;28;95733;-54
2021/08/24 05:21:29;;;;;;;12.82;6.05;;;20.20;61.80;;;;;;4964027;28;96531;-57
2021/08/24 05:24:01;;;;;;;11.82;5.82;;;20.20;61.70;;;;;;4962653;28;95778;-55
2021/08/24 05:26:31;;;;;;;;;;;20.20;61.50;;;;;;4964978;28;95990;-52
2021/08/24 05:29:02;;;;;;;14.57;5.60;;;20.10;61.40;;;;;;4962594;28;96022;-51
2021/08/24 05:31:34;;;;;;;;;;;20.10;61.40;;;;;;4955946;28;96682;-51
2021/08/24 05:34:04;;;;;;;14.50;6.37;;;20.10;61.50;;;;;;4967983;28;95820;-51
2021/08/24 05:36:35;;;;;;;13.38;5.40;;;20.10;61.40;;;;;;4995711;28;96865;-65
2021/08/24 05:39:06;;;;;;;11.37;5.97;;;20.20;61.40;;;;;;4964374;28;96307;-57
2021/08/24 05:41:39;;;;;;;11.90;5.78;;;20.30;62.00;;;;;;4965620;28;96384;-56
2021/08/24 05:44:10;;;;;;;10.43;5.40;;;20.40;61.20;;;;;;4966481;28;95943;-57
2021/08/24 05:46:41;;;;;;;10.15;4.97;;;20.40;60.90;;;;;;4954429;28;96725;-54
2021/08/24 05:49:13;;;;;;;9.85;4.80;;;20.40;60.70;;;;;;4963425;28;95861;-56
2021/08/24 05:51:44;;;;;;;10.60;4.80;;;20.50;60.80;;;;;;4967258;28;95607;-57
2021/08/24 05:54:15;;;;;;;9.10;4.43;;;20.50;60.30;;;;;;4965570;28;96776;-57
2021/08/24 05:56:49;;;;;;;12.60;4.05;;;20.50;60.40;;;;;;4964351;28;96743;-53
2021/08/24 05:59:18;;;;;;;10.18;4.38;;;20.50;60.00;;;;;;4962767;28;95634;-56
2021/08/24 06:01:49;;;;;;;9.10;4.15;;;20.50;59.90;;;;;;4958240;28;95968;-52
2021/08/24 06:04:19;;;;;;;11.00;4.87;;;20.50;59.90;;;;;;4959891;28;96130;-55
2021/08/24 06:06:50;;;;;;;8.17;4.57;;;20.50;60.00;;;;;;4963698;28;98654;-53
2021/08/24 06:09:20;;;;;;;7.23;4.30;;;20.50;60.00;;;;;;4964847;28;96183;-53
2021/08/24 06:11:51;;;;;;;5.68;3.05;;;20.50;59.90;;;;;;4964277;28;95864;-55
2021/08/24 06:14:23;;;;;;;7.20;3.13;;;20.50;59.10;;;;;;4995739;28;96459;-54
2021/08/24 06:16:56;;;;;;;8.82;3.45;;;20.40;58.80;;;;;;4956033;28;99953;-54
2021/08/24 06:19:30;;;;;;;7.20;3.25;;;20.40;59.40;;;;;;4959702;28;95975;-58
2021/08/24 06:22:02;;;;;;;4.95;2.90;;;20.40;59.60;;;;;;4961471;28;96175;-50
2021/08/24 06:24:36;;;;;;;6.95;3.03;;;20.40;59.60;;;;;;4963351;28;97244;-55
2021/08/24 06:27:07;;;;;;;6.25;3.17;;;20.40;59.60;;;;;;4962304;28;97698;-55
2021/08/24 06:29:38;;;;;;;7.13;3.20;;;20.40;59.60;;;;;;4964084;28;95734;-55
2021/08/24 06:32:22;;;;;;;6.45;2.83;;;20.40;59.50;;;;;;4990734;28;98792;-58
2021/08/24 06:34:52;;;;;;;4.93;2.83;;;20.40;59.70;;;;;;4963728;28;96168;-55
2021/08/24 06:37:22;;;;;;;7.55;3.00;;;20.40;59.60;;;;;;4958895;28;95839;-56
2021/08/24 06:39:53;;;;;;;3.13;2.10;;;20.40;59.80;;;;;;4963842;28;95679;-57
2021/08/24 06:42:24;;;;;;;3.97;2.58;;;20.30;59.90;;;;;;4963143;28;95965;-58
2021/08/24 06:44:55;;;;;;;5.90;2.72;;;20.40;59.90;;;;;;4963670;28;95961;-57
2021/08/24 06:47:26;;;;;;;3.65;1.90;;;20.30;60.00;;;;;;4958270;28;96511;-56
2021/08/24 06:49:59;;;;;;;15.20;3.40;;;20.30;60.00;;;;;;4964115;28;96235;-62
2021/08/24 06:52:32;;;;;;;5.82;2.42;;;20.30;60.10;;;;;;4960382;28;95830;-62
2021/08/24 06:55:06;;;;;;;7.00;2.30;;;20.30;60.30;;;;;;4959862;28;96625;-62
2021/08/24 06:57:38;;;;;;;5.60;1.98;;;20.30;60.30;;;;;;4965447;28;95752;-64
2021/08/24 07:00:16;;;;;;;5.18;2.35;;;20.30;60.30;;;;;;4964431;28;95314;-61
2021/08/24 07:02:47;;;;;;;5.20;2.60;;;20.30;60.40;;;;;;4963985;28;96412;-63
2021/08/24 07:05:20;;;;;;;4.07;2.43;;;20.20;60.40;;;;;;4964886;28;95799;-64
2021/08/24 07:07:52;;;;;;;8.63;2.10;;;20.20;60.50;;;;;;4964521;28;96035;-63
2021/08/24 07:10:24;;;;;;;3.67;1.90;;;20.20;60.50;;;;;;4960638;28;95314;-63
2021/08/24 07:12:54;;;;;;;4.68;1.95;;;20.20;60.60;;;;;;4959650;28;96585;-65
2021/08/24 07:15:25;;;;;;;3.53;2.38;;;20.10;60.60;;;;;;4956954;28;96854;-64
2021/08/24 07:17:57;;;;;;;4.93;2.08;;;20.10;60.70;;;;;;4961250;28;96646;-63
2021/08/24 07:20:29;;;;;;;4.25;1.95;;;20.10;60.80;;;;;;4962194;28;95793;-62
2021/08/24 07:23:00;;;;;;;;;;;20.10;60.90;;;;;;4964915;28;95329;-63
2021/08/24 07:25:36;;;;;;;4.40;2.00;;;20.10;61.00;;;;;;4963407;28;95734;-62
2021/08/24 07:28:10;;;;;;;2.85;2.00;;;20.10;61.10;;;;;;4957899;28;97519;-62
2021/08/24 07:30:43;;;;;;;;;;;20.10;61.20;;;;;;4958137;28;97092;-61
2021/08/24 07:33:13;;;;;;;4.20;1.85;;;20.00;61.20;;;;;;4964605;28;96076;-62
2021/08/24 07:35:47;;;;;;;5.47;2.03;;;20.00;61.20;;;;;;4964664;28;96298;-65
2021/08/24 07:38:20;;;;;;;4.03;1.88;;;20.00;61.70;;;;;;4963599;28;95809;-61
2021/08/24 07:40:50;;;;;;;3.05;1.75;;;19.90;61.60;;;;;;4962497;28;95580;-61
2021/08/24 07:43:21;;;;;;;;;;;19.90;61.70;;;;;;4954556;28;95773;-62
2021/08/24 07:45:52;;;;;;;4.35;1.58;;;19.90;61.60;;;;;;4958549;28;95377;-61
2021/08/24 07:48:25;;;;;;;3.13;1.40;;;19.90;61.70;;;;;;4963102;28;96287;-64
2021/08/24 07:50:56;;;;;;;2.20;1.48;;;19.90;61.70;;;;;;4963574;28;95796;-63
2021/08/24 07:53:28;;;;;;;2.00;1.27;;;19.80;61.70;;;;;;4965613;28;95927;-64
2021/08/24 07:56:02;;;;;;;2.13;1.60;;;19.80;61.70;;;;;;4963188;28;96328;-65
2021/08/24 07:58:32;;;;;;;2.15;1.40;;;19.80;61.80;;;;;;4960505;28;95904;-65
2021/08/24 08:01:02;;;;;;;2.22;0.98;;;19.70;61.80;;;;;;4952661;28;96585;-64
2021/08/24 08:03:32;;;;;;;2.88;1.40;;;19.70;61.90;;;;;;4964985;28;96192;-65
2021/08/24 08:06:05;;;;;;;1.55;1.17;;;19.70;61.90;;;;;;4996646;28;95889;-65
2021/08/24 08:08:36;;;;;;;3.47;1.67;;;19.60;61.90;;;;;;4962577;28;96225;-64
2021/08/24 08:11:06;;;;;;;1.70;1.20;;;19.50;62.00;;;;;;4959482;28;97073;-65
2021/08/24 08:13:38;;;;;;;2.15;1.38;;;19.50;62.00;;;;;;4962213;28;96538;-65
2021/08/24 08:16:10;;;;;;;2.63;1.40;;;19.50;62.10;;;;;;4955542;28;97576;-65
2021/08/24 08:18:50;;;;;;;3.15;1.55;;;19.40;62.10;;;;;;4961321;28;95901;-65
2021/08/24 08:21:21;;;;;;;1.80;1.25;;;19.40;62.30;;;;;;4961982;28;96299;-63
2021/08/24 08:23:52;;;;;;;2.10;1.60;;;19.30;62.30;;;;;;4963731;28;95896;-65
2021/08/24 08:26:23;;;;;;;2.53;1.80;;;19.30;62.40;;;;;;4963964;28;96068;-64
2021/08/24 08:28:55;;;;;;;1.95;1.63;;;19.30;62.60;;;;;;4963179;28;95833;-65
2021/08/24 08:31:26;;;;;;;2.35;1.77;;;19.30;62.70;;;;;;4960425;28;97280;-62
2021/08/24 08:33:57;;;;;;;3.42;2.15;;;19.20;62.70;;;;;;4959686;28;95351;-64
2021/08/24 08:36:27;;;;;;;5.28;2.60;;;19.10;62.70;;;;;;4960838;28;95770;-63
2021/08/24 08:38:57;;;;;;;5.63;3.30;;;19.10;62.90;;;;;;4964623;28;96250;-64
2021/08/24 08:41:34;;;;;;;6.35;4.20;;;19.00;62.90;;;;;;4965495;28;96370;-64
2021/08/24 08:44:39;;;;;;;5.55;4.57;;;19.00;63.00;;;;;;4966820;28;96167;-54
2021/08/24 08:47:19;;;;;;;7.75;4.88;;;19.00;63.20;;;;;;4959457;28;98487;-63
2021/08/24 08:50:10;;;;;;;10.55;6.53;;;19.00;63.30;;;;;;4961289;28;95380;-63
2021/08/24 08:52:55;;;;;;;12.50;7.93;;;18.90;63.40;;;;;;4994683;28;97131;-64
2021/08/24 08:55:54;;;;;;;9.55;6.63;;;18.80;63.50;;;;;;4965610;28;95218;-65
2021/08/24 08:58:35;;;;;;;9.13;5.90;;;18.80;63.70;;;;;;4995103;28;95822;-64
2021/08/24 09:01:14;;;;;;;7.25;5.00;;;18.70;63.70;;;;;;4959272;28;95820;-64
2021/08/24 09:04:03;;;;;;;9.02;5.78;;;18.70;63.80;;;;;;4964544;28;96042;-65
2021/08/24 09:06:36;;;;;;;7.78;5.65;;;18.70;63.90;;;;;;4960850;28;98372;-63
2021/08/24 09:09:08;;;;;;;10.05;5.78;;;18.60;64.00;;;;;;4960250;28;96056;-64
2021/08/24 09:11:45;;;;;;;7.47;5.38;;;18.60;64.10;;;;;;4959461;28;95881;-64
2021/08/24 09:14:41;;;;;;;9.07;5.95;;;18.50;64.10;;;;;;4961202;28;95713;-64
2021/08/24 09:17:22;;;;;;;8.55;5.28;;;18.50;64.10;;;;;;4957357;28;95468;-65
2021/08/24 09:20:31;;;;;;;8.65;5.43;;;18.40;64.10;;;;;;4964042;28;95731;-64
2021/08/24 09:23:03;;;;;;;8.98;5.43;;;18.40;64.20;;;;;;4963125;28;96835;-63
2021/08/24 09:25:52;;;;;;;9.80;6.97;;;18.40;64.30;;;;;;4964406;28;96529;-63
2021/08/24 09:28:28;;;;;;;9.50;5.63;;;18.30;64.20;;;;;;4964066;28;96005;-53
2021/08/24 09:31:06;;;;;;;9.43;6.45;;;18.30;64.10;;;;;;4959863;28;98630;-54
2021/08/24 09:33:40;;;;;;;10.43;7.00;;;18.30;64.20;;;;;;4964289;28;98065;-57
2021/08/24 09:36:10;;;;;;;10.07;6.15;;;18.20;64.20;;;;;;4965457;28;96395;-63
2021/08/24 09:38:57;;;;;;;8.93;6.93;;;18.20;64.20;;;;;;4963545;28;95839;-53
2021/08/24 09:41:38;;;;;;;7.85;5.57;;;18.20;64.40;;;;;;4959464;28;95807;-54
2021/08/24 09:44:28;;;;;;;10.05;5.97;;;18.10;64.40;;;;;;4964769;28;96407;-63
2021/08/24 09:47:09;;;;;;;8.70;5.88;;;18.10;64.40;;;;;;4959744;28;98108;-64
2021/08/24 09:49:44;;;;;;;9.10;6.13;;;18.10;64.50;;;;;;4966052;28;95293;-56
2021/08/24 09:52:24;;;;;;;9.02;6.85;;;18.00;64.50;;;;;;4965212;28;96627;-55
2021/08/24 09:55:01;;;;;;;7.28;5.78;;;18.00;64.50;;;;;;4964874;28;96629;-64
2021/08/24 09:57:46;;;;;;;7.93;5.65;;;18.00;64.60;;;;;;4960776;28;95348;-62
2021/08/24 10:00:26;;;;;;;10.18;6.97;;;17.90;64.60;;;;;;4960630;28;95791;-64
2021/08/24 10:03:00;;;;;;;7.07;5.15;;;17.90;64.50;;;;;;4958827;28;95411;-53
2021/08/24 10:05:39;;;;;;;7.97;5.72;;;17.80;64.50;;;;;;4957800;28;95870;-63
2021/08/24 10:08:37;;;;;;;8.48;4.95;;;17.80;64.70;;;;;;4953302;28;95864;-62
2021/08/24 10:11:22;;;;;;;6.63;4.97;;;17.70;64.90;;;;;;4964693;28;95548;-50
2021/08/24 10:13:54;;;;;;;7.47;5.05;;;17.70;64.90;;;;;;4953750;28;95692;-52
2021/08/24 10:16:30;;;;;;;7.25;4.50;;;17.60;65.00;;;;;;4959401;28;96990;-53
2021/08/24 10:19:22;;;;;;;6.18;4.95;;;17.60;65.20;;;;;;4962897;28;95615;-63
2021/08/24 10:21:56;;;;;;;6.72;5.45;;;17.50;65.20;;;;;;4955950;28;95753;-56
2021/08/24 10:24:57;;;;;;;6.78;5.05;;;17.50;65.90;;;;;;4965608;28;95636;-62
2021/08/24 10:27:37;;;;;;;9.55;4.93;;;17.40;66.20;;;;;;4960666;28;95878;-54
2021/08/24 10:30:12;;;;;;;7.03;4.88;;;17.30;66.40;;;;;;4960215;28;95952;-62
2021/08/24 10:32:55;;;;;;;5.35;4.50;;;17.20;66.60;;;;;;4967115;28;95693;-61
2021/08/24 10:35:42;;;;;;;9.05;4.68;;;17.20;66.70;;;;;;4958172;28;95651;-53
2021/08/24 10:38:19;;;;;;;6.00;4.65;;;17.10;66.80;;;;;;4959507;28;97012;-57
2021/08/24 10:40:49;;;;;;;6.30;4.38;;;17.10;66.90;;;;;;4954011;28;95439;-62
2021/08/24 10:43:23;;;;;;;4.97;4.07;;;17.00;67.00;;;;;;4961623;28;95835;-62
2021/08/24 10:46:14;;;;;;;5.80;4.25;;;16.90;67.00;;;;;;4953129;28;95772;-63
2021/08/24 10:48:46;;;;;;;6.25;4.30;;;16.90;67.20;;;;;;4957923;28;96046;-62
2021/08/24 10:51:37;;;;;;;6.00;4.03;;;16.90;67.30;;;;;;4955348;28;95843;-62
2021/08/24 10:54:27;;;;;;;5.22;4.47;;;16.80;67.40;;;;;;4962826;28;95767;-62
2021/08/24 10:57:16;;;;;;;6.60;4.32;;;16.80;67.50;;;;;;4954814;28;97583;-57
2021/08/24 11:00:01;;;;;;;4.47;3.40;;;16.70;67.50;;;;;;4962778;28;97844;-62
2021/08/24 11:02:42;;;;;;;5.10;3.63;;;16.70;67.60;;;;;;4960906;28;96351;-53
2021/08/24 11:05:48;;;;;;;5.00;4.20;;;16.70;67.70;;;;;;4963453;28;97645;-61
2021/08/24 11:08:18;;;;;;;4.32;3.90;;;16.60;67.70;;;;;;4964010;28;95397;-53
2021/08/24 11:11:08;;;;;;;4.30;3.50;;;16.60;67.80;;;;;;4965989;28;95864;-53
2021/08/24 11:13:59;;;;;;;6.00;3.95;;;16.60;67.90;;;;;;4965741;28;95782;-62
2021/08/24 11:17:06;;;;;;;4.88;3.75;;;16.50;67.90;;;;;;4955232;28;95829;-54
2021/08/24 11:19:57;;;;;;;4.57;3.72;;;16.50;68.00;;;;;;4953052;28;95527;-62
2021/08/24 11:22:39;;;;;;;5.97;3.75;;;16.40;68.00;;;;;;4960022;28;95870;-62
2021/08/24 11:25:38;;;;;;;3.97;3.55;;;16.40;68.10;;;;;;4950555;28;95855;-62
2021/08/24 11:28:21;;;;;;;3.75;3.03;;;16.30;68.20;;;;;;4959065;28;95786;-62
2021/08/24 11:30:57;;;;;;;3.65;2.90;;;16.30;68.20;;;;;;4952791;28;96081;-53
2021/08/24 11:34:10;;;;;;;4.38;3.13;;;16.30;68.30;;;;;;4955305;28;96437;-54
2021/08/24 11:37:01;;;;;;;3.72;3.20;;;16.20;68.30;;;;;;4958078;28;95929;-62
2021/08/24 11:39:41;;;;;;;3.42;3.13;;;16.20;68.40;;;;;;4960615;28;95866;-63
2021/08/24 11:42:28;;;;;;;4.35;3.28;;;16.10;68.40;;;;;;4961821;28;96054;-62
2021/08/24 11:45:00;;;;;;;4.80;3.05;;;16.10;68.50;;;;;;4968286;28;96395;-52
2021/08/24 11:47:44;;;;;;;5.85;3.58;;;16.10;68.60;;;;;;4951061;28;95822;-63
2021/08/24 11:50:23;;;;;;;3.50;3.20;;;16.00;69.20;;;;;;4965443;28;95796;-51
2021/08/24 11:53:06;;;;;;;3.08;2.45;;;16.00;69.20;;;;;;4960389;28;95299;-47
2021/08/24 11:55:44;;;;;;;6.68;3.28;;;16.10;68.30;;;;;;4952627;28;96047;-51
2021/08/24 11:58:17;;;;;;;4.15;2.50;;;16.10;68.20;;;;;;4977123;28;96288;-49
2021/08/24 12:00:55;;;;;;;2.63;2.35;;;16.10;68.10;;;;;;4954540;28;95738;-53
2021/08/24 12:03:26;;;;;;;3.83;2.70;;;16.10;68.10;;;;;;4965219;28;95962;-52
2021/08/24 12:06:21;;;;;;;4.05;3.20;;;16.10;68.00;;;;;;4987019;28;98116;-48
2021/08/24 12:08:56;;;;;;;4.00;2.80;;;16.10;67.90;;;;;;4957396;28;95841;-48
2021/08/24 12:11:47;;;;;;;2.67;2.35;;;16.10;67.90;;;;;;4996542;28;95552;-52
2021/08/24 12:14:18;;;;;;;3.13;2.78;;;16.10;68.50;;;;;;4966238;28;95738;-50
2021/08/24 12:17:03;;;;;;;4.07;3.05;;;16.10;67.90;;;;;;4961241;28;96238;-59
2021/08/24 12:19:37;;;;;;;2.33;2.10;;;16.10;67.90;;;;;;4961603;28;95947;-50
2021/08/24 12:22:13;;;;;;;2.97;2.70;;;16.10;67.90;;;;;;4967602;28;96787;-52
2021/08/24 12:24:57;;;;;;;2.67;2.42;;;16.10;67.80;;;;;;4964529;28;96174;-50
2021/08/24 12:27:31;;;;;;;2.95;2.30;;;16.10;67.80;;;;;;4966140;28;96073;-51
2021/08/24 12:30:12;;;;;;;3.05;2.53;;;16.00;67.70;;;;;;4994531;28;95672;-50
2021/08/24 12:32:50;;;;;;;2.63;2.42;;;16.00;67.70;;;;;;4992845;28;95947;-49
2021/08/24 12:35:32;;;;;;;3.00;2.70;;;16.10;67.70;;;;;;4966036;28;96035;-60
2021/08/24 12:38:03;;;;;;;3.65;3.05;;;16.10;67.70;;;;;;4961724;28;95910;-51
2021/08/24 12:41:01;;;;;;;2.88;2.42;;;16.10;67.70;;;;;;4960301;28;95681;-48
2021/08/24 12:43:40;;;;;;;3.67;2.75;;;16.00;67.60;;;;;;4966068;28;95257;-60
2021/08/24 12:46:23;;;;;;;4.03;2.55;;;16.00;67.60;;;;;;4954300;28;95953;-60
2021/08/24 12:49:29;;;;;;;3.03;2.47;;;16.10;67.60;;;;;;4957501;28;96496;-61
2021/08/24 12:52:06;;;;;;;3.85;2.47;;;16.00;67.60;;;;;;4949382;28;95848;-59
2021/08/24 12:55:05;;;;;;;4.05;2.60;;;16.00;67.60;;;;;;4960010;28;95945;-61
2021/08/24 12:57:41;;;;;;;3.17;2.80;;;16.00;67.60;;;;;;4963883;28;95601;-60
2021/08/24 13:00:35;;;;;;;4.78;3.20;;;16.00;67.60;;;;;;4964843;28;96043;-60
2021/08/24 13:03:26;;;;;;;4.20;2.75;;;16.00;67.60;;;;;;4958884;28;102452;-61
2021/08/24 13:06:18;;;;;;;3.07;2.77;;;16.00;67.50;;;;;;4962935;28;98085;-61
2021/08/24 13:08:50;;;;;;;;;;;16.00;67.50;;;;;;4965961;28;95759;-59
2021/08/24 13:11:32;;;;;;;3.03;2.72;;;16.00;67.50;;;;;;4971658;28;96045;-51
2021/08/24 13:14:36;;;;;;;3.40;2.50;;;16.00;67.50;;;;;;4966350;28;95707;-60
2021/08/24 13:17:10;;;;;;;3.58;3.28;;;16.00;67.50;;;;;;4952247;28;96090;-53
2021/08/24 13:19:41;;;;;;;3.10;2.50;;;15.90;67.50;;;;;;4960064;28;95540;-50
2021/08/24 13:23:03;;;;;;;3.40;2.78;;;15.90;67.40;;;;;;4966525;28;95940;-60
2021/08/24 13:25:39;;;;;;;2.83;2.47;;;15.90;67.40;;;;;;4947804;28;95909;-60
2021/08/24 13:28:15;;;;;;;3.03;2.50;;;15.90;67.40;;;;;;4965832;28;95805;-52
2021/08/24 13:30:53;;;;;;;3.80;2.85;;;15.90;67.40;;;;;;4955952;28;95734;-51
2021/08/24 13:33:38;;;;;;;2.55;2.35;;;15.90;67.50;;;;;;4958570;28;95955;-52
2021/08/24 13:36:18;;;;;;;2.47;2.28;;;15.90;67.50;;;;;;4952712;28;95704;-60
2021/08/24 13:38:53;;;;;;;3.45;2.55;;;15.80;67.50;;;;;;4967032;28;95786;-60
2021/08/24 13:41:36;;;;;;;2.40;2.20;;;15.90;67.50;;;;;;4963525;28;95922;-52
2021/08/24 13:44:16;;;;;;;3.60;2.67;;;15.90;67.50;;;;;;4962766;28;95842;-60
2021/08/24 13:46:57;;;;;;;3.03;2.30;;;15.90;67.50;;;;;;4956383;28;95869;-52